createdAt,value
2018-10-19T08:47:13.480Z,21.764221
2018-10-19T08:47:15.841Z,21.734009
2018-10-19T08:47:18.108Z,21.723938
2018-10-19T08:47:20.454Z,21.703796
2018-10-19T08:47:22.811Z,21.673584
2018-10-19T08:47:25.209Z,21.653442
2018-10-19T08:47:27.593Z,21.643372
2018-10-19T08:47:29.964Z,21.643372
2018-10-19T08:47:32.336Z,21.613159
2018-10-19T08:47:34.676Z,21.603088
2018-10-19T08:47:37.064Z,21.552734
2018-10-19T08:47:39.370Z,21.582947
2018-10-19T08:47:41.717Z,21.552734
2018-10-19T08:47:44.219Z,21.552734
2018-10-19T08:47:46.470Z,21.552734
2018-10-19T08:47:48.808Z,21.542664
2018-10-19T08:47:51.376Z,21.522522
2018-10-19T08:47:53.480Z,21.542664
2018-10-19T08:47:55.836Z,21.552734
2018-10-19T08:47:58.193Z,21.552734
2018-10-19T08:48:00.544Z,21.552734
2018-10-19T08:48:03.895Z,21.572876
2018-10-19T08:48:06.254Z,21.542664
2018-10-19T08:48:08.599Z,21.552734
2018-10-19T08:48:10.981Z,21.572876
2018-10-19T08:48:13.368Z,21.572876
2018-10-19T08:48:15.694Z,21.552734
2018-10-19T08:48:18.037Z,21.572876
2018-10-19T08:48:20.375Z,21.572876
2018-10-19T08:48:22.736Z,21.542664
2018-10-19T08:48:25.078Z,21.522522
2018-10-19T08:48:27.442Z,21.512451
2018-10-19T08:48:29.784Z,21.522522
2018-10-19T08:48:32.130Z,21.49231
2018-10-19T08:48:34.469Z,21.49231
2018-10-19T08:48:36.840Z,21.49231
2018-10-19T08:48:39.193Z,21.512451
2018-10-19T08:48:41.558Z,21.49231
2018-10-19T08:48:43.913Z,21.472168
2018-10-19T08:48:46.268Z,21.472168
2018-10-19T08:48:48.637Z,21.462097
2018-10-19T08:48:50.983Z,21.452026
2018-10-19T08:48:53.365Z,21.452026
2018-10-19T08:48:55.751Z,21.452026
2018-10-19T08:48:58.060Z,21.452026
2018-10-19T08:49:00.417Z,21.431885
2018-10-19T08:49:02.828Z,21.431885
2018-10-19T08:49:05.093Z,21.431885
2018-10-19T08:49:07.459Z,21.431885
2018-10-19T08:49:09.830Z,21.421814
2018-10-19T08:49:12.201Z,21.421814
2018-10-19T08:49:33.893Z,21.401672
2018-10-19T08:49:37.245Z,21.391602
2018-10-19T08:49:40.635Z,21.391602
2018-10-19T08:49:43.986Z,21.391602
2018-10-19T08:49:47.350Z,21.391602
2018-10-19T08:49:50.705Z,21.37146
2018-10-19T08:49:54.082Z,21.351318
2018-10-19T08:49:57.458Z,21.331177
2018-10-19T08:50:00.809Z,21.351318
2018-10-19T08:50:04.158Z,21.331177
2018-10-19T08:50:07.503Z,21.331177
2018-10-19T08:50:10.861Z,21.321106
2018-10-19T08:50:14.247Z,21.300964
2018-10-19T08:50:17.594Z,21.270752
2018-10-19T08:50:20.957Z,21.25061
2018-10-19T08:50:24.322Z,21.24054
2018-10-19T08:50:27.677Z,21.24054
2018-10-19T08:50:31.019Z,21.24054
2018-10-19T08:50:34.371Z,21.220398
2018-10-19T08:50:37.722Z,21.220398
2018-10-19T08:50:41.058Z,21.180115
2018-10-19T08:50:44.418Z,21.149902
2018-10-19T08:50:47.754Z,21.149902
2018-10-19T08:50:51.206Z,21.139832
2018-10-19T08:50:54.677Z,21.099548
2018-10-19T08:50:58.002Z,21.11969
2018-10-19T08:51:01.374Z,21.11969
2018-10-19T08:51:04.774Z,21.099548
2018-10-19T08:51:08.154Z,21.089478
2018-10-19T08:51:11.583Z,21.049194
